Time;durP1;ratioP1;P1;durP2;ratioP2;P2;SDS_P1;SDS_P2;PMS_P1;PMS_P2;Temp;Humidity;BMP_temperature;BMP_pressure;BME280_temperature;BME280_humidity;BME280_pressure;Samples;Min_cycle;Max_cycle;Signal;HPM_P1;HPM_P2
2021/04/16 06:00:39;;;;;;;;;;;;;;;;;;;;;
2021/04/16 06:10:20;;;;;;;5.78;5.38;;;2.60;99.90;;;;;;4879463;29;20205;-83
2021/04/16 06:13:37;;;;;;;;;;;;;;;;;;;;;
2021/04/16 06:29:51;;;;;;;6.80;6.10;;;3.70;99.90;;;;;;4774701;29;20400;-83
2021/04/16 06:35:15;;;;;;;6.90;5.68;;;4.00;99.90;;;;;;4804475;29;20266;-83
2021/04/16 06:38:10;;;;;;;6.13;5.63;;;4.10;99.90;;;;;;4860430;29;20297;-83
2021/04/16 06:43:39;;;;;;;6.55;5.95;;;4.10;99.90;;;;;;4898181;29;20227;-83
2021/04/16 06:49:12;;;;;;;6.53;4.75;;;4.30;99.70;;;;;;4847512;29;20241;-83
2021/04/16 06:55:19;;;;;;;5.88;5.28;;;4.50;99.30;;;;;;4867301;29;20298;-83
2021/04/16 06:58:28;;;;;;;;;;;;;;;;;;;;;
2021/04/16 07:01:31;;;;;;;;;;;;;;;;;;;;;
2021/04/16 07:42:11;;;;;;;6.47;5.88;;;5.80;96.20;;;;;;965989;23;20525;-79
2021/04/16 07:44:42;;;;;;;7.10;6.20;;;5.90;96.20;;;;;;4912571;29;20255;-80
2021/04/16 07:47:16;;;;;;;6.68;6.18;;;5.70;96.80;;;;;;4907734;29;20226;-79
2021/04/16 07:49:54;;;;;;;7.38;6.68;;;5.50;96.70;;;;;;4908554;29;20234;-78
2021/04/16 07:52:25;;;;;;;5.78;5.38;;;5.60;96.80;;;;;;4903058;29;20210;-79
2021/04/16 07:55:14;;;;;;;5.97;5.38;;;5.80;96.90;;;;;;4901977;29;20231;-79
2021/04/16 07:57:43;;;;;;;7.60;7.00;;;5.70;96.60;;;;;;4903050;29;20204;-83
2021/04/16 08:00:24;;;;;;;5.95;5.55;;;5.80;96.70;;;;;;4902562;29;20211;-80
2021/04/16 08:02:54;;;;;;;6.68;6.18;;;5.80;96.60;;;;;;4903128;29;20218;-80
2021/04/16 08:05:30;;;;;;;5.68;5.28;;;6.00;96.60;;;;;;4908676;29;20230;-80
2021/04/16 08:08:08;;;;;;;5.50;5.00;;;6.10;96.20;;;;;;4904373;29;20249;-80
2021/04/16 08:10:34;;;;;;;5.13;4.72;;;6.10;95.70;;;;;;4902468;29;20199;-81
2021/04/16 08:13:07;;;;;;;5.63;5.13;;;6.20;95.90;;;;;;4904765;29;20239;-79
2021/04/16 08:15:34;;;;;;;5.05;4.70;;;6.40;96.10;;;;;;4903509;29;20234;-84
2021/04/16 08:18:13;;;;;;;5.32;5.00;;;6.60;95.80;;;;;;4902895;29;20278;-80
2021/04/16 08:20:49;;;;;;;5.50;5.10;;;6.60;95.20;;;;;;4901441;29;20211;-80
2021/04/16 08:23:16;;;;;;;4.80;4.47;;;6.70;94.90;;;;;;4903723;29;20215;-80
2021/04/16 08:25:49;;;;;;;5.72;5.28;;;6.60;94.40;;;;;;4911340;29;20664;-81
2021/04/16 08:28:20;;;;;;;5.00;4.70;;;6.50;94.80;;;;;;4908580;29;20238;-82
2021/04/16 08:30:57;;;;;;;6.20;5.60;;;6.50;95.10;;;;;;4905043;29;20215;-80
2021/04/16 08:33:30;;;;;;;5.90;5.43;;;6.70;95.40;;;;;;4886833;29;20248;-82
2021/04/16 08:36:04;;;;;;;5.65;5.15;;;6.90;95.20;;;;;;4906730;29;20238;-83
2021/04/16 08:38:35;;;;;;;6.35;5.75;;;7.20;95.10;;;;;;4906153;29;20210;-81
2021/04/16 08:41:03;;;;;;;5.93;5.53;;;7.40;94.70;;;;;;4905182;29;20211;-81
2021/04/16 08:43:35;;;;;;;5.63;5.22;;;7.60;94.30;;;;;;4900599;29;20219;-80
2021/04/16 08:46:06;;;;;;;5.15;4.68;;;7.80;94.10;;;;;;4892576;29;20238;-79
2021/04/16 08:48:37;;;;;;;5.70;5.10;;;7.90;93.40;;;;;;4915000;29;20239;-79
2021/04/16 08:51:08;;;;;;;5.75;5.25;;;7.80;92.70;;;;;;4902211;29;20219;-84
2021/04/16 08:53:34;;;;;;;6.25;5.75;;;7.90;92.60;;;;;;4900851;29;20222;-83
2021/04/16 08:56:15;;;;;;;6.72;6.15;;;7.90;92.70;;;;;;4914898;29;20235;-82
2021/04/16 08:58:43;;;;;;;5.55;5.05;;;8.00;92.90;;;;;;4902131;29;20631;-82
2021/04/16 09:01:13;;;;;;;7.13;6.45;;;8.10;92.30;;;;;;4915759;29;20242;-82
2021/04/16 09:03:43;;;;;;;6.18;5.60;;;8.10;92.20;;;;;;4907252;29;20573;-82
2021/04/16 09:06:22;;;;;;;6.32;5.82;;;8.00;92.00;;;;;;4898382;29;20219;-82
2021/04/16 09:08:50;;;;;;;5.32;4.82;;;7.90;92.20;;;;;;4898545;29;20315;-82
2021/04/16 09:11:52;;;;;;;5.28;4.88;;;7.80;92.20;;;;;;4886586;29;20297;-82
2021/04/16 09:15:25;;;;;;;;;;;;;;;;;;;;;
2021/04/16 09:18:33;;;;;;;5.45;5.05;;;7.30;92.20;;;;;;4888362;29;20213;-83
2021/04/16 12:39:38;;;;;;;5.47;5.07;;;8.10;83.40;;;;;;4958642;29;20713;-83
2021/04/16 12:42:06;;;;;;;6.07;5.57;;;8.00;83.20;;;;;;4959131;28;20213;-83
2021/04/16 12:44:38;;;;;;;4.60;4.30;;;8.10;84.00;;;;;;4959177;28;20229;-83
2021/04/16 12:47:10;;;;;;;6.35;5.00;;;8.20;83.50;;;;;;4958773;29;20204;-83
2021/04/16 12:49:36;;;;;;;5.20;3.90;;;8.10;82.90;;;;;;4958615;29;20269;-83
2021/04/16 12:52:06;;;;;;;4.80;4.50;;;8.10;82.10;;;;;;4958483;29;20205;-83
2021/04/16 12:54:37;;;;;;;5.05;4.65;;;8.10;82.20;;;;;;4958469;29;20244;-83
2021/04/16 12:57:05;;;;;;;5.50;5.10;;;8.00;81.30;;;;;;4959061;29;20262;-83
2021/04/16 12:59:32;;;;;;;5.80;5.05;;;7.80;81.40;;;;;;4958794;28;20212;-83
2021/04/16 13:01:58;;;;;;;5.50;5.00;;;7.80;82.40;;;;;;4958511;29;20217;-82
2021/04/16 13:04:26;;;;;;;4.72;4.32;;;7.80;82.80;;;;;;4960716;29;20249;-82
2021/04/16 13:06:58;;;;;;;4.60;4.30;;;7.80;82.50;;;;;;4958547;28;20214;-83
2021/04/16 13:09:24;;;;;;;4.75;4.43;;;7.90;83.00;;;;;;4958334;29;20236;-83
2021/04/16 13:11:51;;;;;;;5.90;4.82;;;7.90;82.90;;;;;;4958859;28;20224;-83
2021/04/16 13:14:18;;;;;;;5.10;4.70;;;8.10;83.50;;;;;;4959022;29;20233;-82
2021/04/16 13:16:45;;;;;;;4.35;4.10;;;8.30;84.20;;;;;;4959191;28;20694;-82
2021/04/16 13:19:26;;;;;;;4.90;4.47;;;8.40;83.00;;;;;;4967699;28;20189;-81
2021/04/16 13:21:57;;;;;;;4.88;4.57;;;8.50;82.20;;;;;;4976622;29;20246;-81
2021/04/16 13:24:26;;;;;;;5.25;4.75;;;8.60;81.60;;;;;;4976499;29;20280;-81
2021/04/16 13:26:52;;;;;;;5.40;4.90;;;8.70;81.00;;;;;;4974058;29;20278;-83
2021/04/16 13:29:18;;;;;;;4.72;4.35;;;8.80;81.40;;;;;;4959242;29;20230;-83
2021/04/16 13:31:45;;;;;;;5.45;4.85;;;9.00;81.40;;;;;;4958605;29;20214;-83
2021/04/16 13:34:11;;;;;;;7.32;4.97;;;9.00;81.60;;;;;;4957895;28;20707;-83
2021/04/16 13:36:38;;;;;;;5.35;5.05;;;9.10;81.50;;;;;;4958380;28;20241;-83
2021/04/16 13:39:06;;;;;;;4.87;4.17;;;9.20;81.50;;;;;;4958364;28;20249;-83
2021/04/16 13:41:33;;;;;;;5.97;4.97;;;9.40;80.60;;;;;;4958125;28;20581;-82
2021/04/16 13:44:00;;;;;;;4.38;4.07;;;9.50;80.20;;;;;;4957723;29;20268;-83
2021/04/16 13:46:30;;;;;;;3.97;3.67;;;9.50;79.40;;;;;;4957457;28;20562;-83
2021/04/16 13:48:56;;;;;;;4.97;4.57;;;9.50;78.40;;;;;;4958671;29;20484;-83
2021/04/16 13:51:24;;;;;;;4.47;4.17;;;9.60;79.00;;;;;;4957658;29;20894;-83
2021/04/16 13:53:55;;;;;;;4.30;3.90;;;9.70;78.30;;;;;;4957978;28;20466;-83
2021/04/16 13:56:27;;;;;;;5.50;5.07;;;9.80;78.10;;;;;;4958118;29;20455;-83
2021/04/16 13:59:38;;;;;;;;;;;;;;;;;;;;;
2021/04/16 14:02:12;;;;;;;4.47;4.13;;;10.10;76.10;;;;;;4956535;29;20538;-83
2021/04/16 14:04:51;;;;;;;;;;;;;;;;;;;;;
2021/04/16 14:07:37;;;;;;;5.23;4.83;;;10.40;74.80;;;;;;4959995;29;20550;-83
2021/04/16 14:10:17;;;;;;;5.83;4.83;;;10.40;74.60;;;;;;4961167;28;20519;-83
2021/04/16 14:13:28;;;;;;;4.47;4.13;;;10.60;74.70;;;;;;4961160;28;20517;-83
2021/04/16 14:16:24;;;;;;;;;;;;;;;;;;;;;
2021/04/16 14:21:56;;;;;;;4.33;4.00;;;10.90;72.10;;;;;;4961246;29;20462;-83
2021/04/16 14:24:23;;;;;;;4.10;3.60;;;11.00;72.10;;;;;;4961414;29;20617;-83
2021/04/16 14:27:09;;;;;;;4.13;3.83;;;10.80;71.00;;;;;;4960855;28;20524;-83
2021/04/16 14:29:46;;;;;;;5.30;3.63;;;10.50;70.50;;;;;;4961962;29;20490;-83
2021/04/16 14:32:24;;;;;;;4.83;4.53;;;10.60;71.60;;;;;;4960820;29;21008;-83
2021/04/16 14:34:52;;;;;;;3.93;3.63;;;10.50;71.80;;;;;;4961444;29;20483;-83
2021/04/16 14:37:22;;;;;;;3.60;3.40;;;10.50;71.60;;;;;;4961163;28;20526;-83
2021/04/16 14:39:53;;;;;;;3.33;3.13;;;10.30;70.70;;;;;;4961572;28;20487;-83
2021/04/16 14:42:26;;;;;;;4.03;3.73;;;10.20;70.40;;;;;;4960789;29;20453;-83
2021/04/16 14:44:53;;;;;;;3.93;3.13;;;10.10;70.50;;;;;;4960165;29;20480;-83
2021/04/16 14:47:39;;;;;;;4.40;3.47;;;9.90;71.30;;;;;;4960195;28;20831;-84
2021/04/16 14:54:24;;;;;;;3.20;3.00;;;9.60;72.30;;;;;;4891729;28;20483;-82
2021/04/16 14:56:54;;;;;;;4.05;3.65;;;9.60;73.40;;;;;;4960363;29;20508;-82
2021/04/16 15:03:36;;;;;;;3.40;3.10;;;9.60;71.90;;;;;;4913006;29;20254;-83
2021/04/16 15:06:07;;;;;;;3.10;2.80;;;9.60;72.20;;;;;;4932778;28;20490;-82
2021/04/16 15:12:05;;;;;;;3.13;2.90;;;9.30;71.80;;;;;;4934202;28;20591;-84
2021/04/16 15:24:56;;;;;;;3.50;3.30;;;8.80;72.40;;;;;;4696069;30;20248;-84
2021/04/16 15:27:27;;;;;;;5.28;3.60;;;8.70;73.30;;;;;;4936857;29;20210;-84
2021/04/16 15:32:49;;;;;;;3.90;3.60;;;8.70;74.40;;;;;;4880840;29;20208;-81
2021/04/16 15:51:23;;;;;;;2.97;2.78;;;8.20;76.70;;;;;;4858349;29;20207;-83
2021/04/16 15:53:53;;;;;;;3.90;3.08;;;8.00;77.10;;;;;;4911863;29;20217;-82
2021/04/16 15:56:24;;;;;;;3.45;3.15;;;7.90;77.90;;;;;;4958720;28;20202;-81
2021/04/16 15:58:53;;;;;;;3.50;3.20;;;7.90;78.00;;;;;;4962294;29;20204;-85
2021/04/16 16:01:29;;;;;;;3.45;3.25;;;7.90;78.30;;;;;;4962292;28;20201;-85
2021/04/16 16:03:58;;;;;;;3.90;3.60;;;7.90;78.50;;;;;;4962720;29;20681;-83
2021/04/16 16:07:20;;;;;;;;;;;;;;;;;;;;;
2021/04/16 16:09:53;;;;;;;3.30;3.10;;;7.90;79.90;;;;;;4897141;28;20236;-84
2021/04/16 16:12:20;;;;;;;3.50;3.20;;;7.90;80.40;;;;;;4962360;29;20349;-84
2021/04/16 16:15:17;;;;;;;;;;;;;;;;;;;;;
2021/04/16 16:18:26;;;;;;;;;;;;;;;;;;;;;
2021/04/16 16:27:50;;;;;;;3.80;3.50;;;7.50;83.00;;;;;;4904778;29;20266;-84
2021/04/16 16:30:31;;;;;;;3.97;3.67;;;7.30;84.60;;;;;;4959456;28;20236;-84
2021/04/16 16:57:47;;;;;;;;;;;;;;;;;;;;;
2021/04/16 17:06:50;;;;;;;4.60;4.10;;;6.60;90.30;;;;;;4762544;30;20257;-83
2021/04/16 17:09:24;;;;;;;4.88;4.35;;;6.70;90.50;;;;;;4871343;28;20255;-84
2021/04/16 17:11:54;;;;;;;5.22;4.80;;;6.60;90.90;;;;;;4980268;28;20216;-84
2021/04/16 17:21:22;;;;;;;5.13;4.72;;;6.50;90.90;;;;;;4900466;29;20214;-84
2021/04/16 17:23:53;;;;;;;4.78;4.38;;;6.50;90.90;;;;;;4941471;29;20209;-84
2021/04/16 17:33:30;;;;;;;7.65;4.10;;;6.70;91.10;;;;;;4885346;29;20191;-85
2021/04/16 17:35:59;;;;;;;5.40;4.90;;;6.50;91.00;;;;;;4948300;29;20229;-84
2021/04/16 17:38:36;;;;;;;3.65;3.45;;;6.40;91.40;;;;;;4947894;29;20210;-84
2021/04/16 17:41:10;;;;;;;4.80;4.38;;;6.50;91.70;;;;;;4946886;29;20210;-84
2021/04/16 17:43:47;;;;;;;4.90;4.50;;;6.50;91.80;;;;;;4947866;29;20276;-84
2021/04/16 17:46:17;;;;;;;5.90;4.43;;;6.40;91.90;;;;;;4946231;29;20716;-82
2021/04/16 17:48:44;;;;;;;4.78;4.38;;;6.40;92.00;;;;;;4941641;29;20213;-84
2021/04/16 17:51:42;;;;;;;;;;;;;;;;;;;;;
2021/04/16 17:54:16;;;;;;;5.13;4.63;;;6.40;92.00;;;;;;4936025;28;20288;-83
2021/04/16 17:56:49;;;;;;;4.15;3.85;;;6.40;91.90;;;;;;4952161;29;20207;-83
2021/04/16 17:59:18;;;;;;;3.90;3.60;;;6.40;91.90;;;;;;4949357;29;20193;-83
2021/04/16 18:01:45;;;;;;;4.70;4.30;;;6.40;91.90;;;;;;4954719;29;20208;-83
2021/04/16 18:04:13;;;;;;;3.95;3.65;;;6.30;92.10;;;;;;4950265;29;20226;-84
2021/04/16 18:06:43;;;;;;;4.28;3.85;;;6.30;92.10;;;;;;4945421;29;20217;-83
2021/04/16 18:09:27;;;;;;;4.85;4.45;;;6.20;92.20;;;;;;4945790;29;20241;-83
2021/04/16 18:11:56;;;;;;;4.20;3.90;;;6.20;92.30;;;;;;4929010;29;20229;-84
2021/04/16 18:14:36;;;;;;;5.28;4.70;;;6.20;92.50;;;;;;4944779;29;20222;-83
